sensor_id;sensor_type;location;lat;lon;timestamp;temperature;humidity
24645;DHT22;12780;45.502;9.146;2023-02-01T00:01:32;6.70;99.90
24645;DHT22;12780;45.502;9.146;2023-02-01T00:03:57;6.70;99.90
24645;DHT22;12780;45.502;9.146;2023-02-01T00:06:23;6.70;99.90
24645;DHT22;12780;45.502;9.146;2023-02-01T00:08:51;6.60;99.90
24645;DHT22;12780;45.502;9.146;2023-02-01T00:11:17;6.60;99.90
24645;DHT22;12780;45.502;9.146;2023-02-01T00:13:42;6.60;99.90
24645;DHT22;12780;45.502;9.146;2023-02-01T00:16:14;6.60;99.90
24645;DHT22;12780;45.502;9.146;2023-02-01T00:18:44;6.50;99.90
24645;DHT22;12780;45.502;9.146;2023-02-01T00:21:11;6.60;99.90
24645;DHT22;12780;45.502;9.146;2023-02-01T00:23:37;6.60;99.90
24645;DHT22;12780;45.502;9.146;2023-02-01T00:26:05;6.60;99.90
24645;DHT22;12780;45.502;9.146;2023-02-01T00:28:31;6.60;99.90
24645;DHT22;12780;45.502;9.146;2023-02-01T00:31:01;6.70;99.90
24645;DHT22;12780;45.502;9.146;2023-02-01T00:33:28;6.60;99.90
24645;DHT22;12780;45.502;9.146;2023-02-01T00:36:01;6.50;99.90
24645;DHT22;12780;45.502;9.146;2023-02-01T00:38:27;6.40;99.90
24645;DHT22;12780;45.502;9.146;2023-02-01T00:40:54;6.50;99.90
24645;DHT22;12780;45.502;9.146;2023-02-01T00:43:20;6.60;99.90
24645;DHT22;12780;45.502;9.146;2023-02-01T00:45:46;6.60;99.90
24645;DHT22;12780;45.502;9.146;2023-02-01T00:48:12;6.60;99.90
24645;DHT22;12780;45.502;9.146;2023-02-01T00:50:43;6.70;99.90
24645;DHT22;12780;45.502;9.146;2023-02-01T00:53:10;6.60;99.90
24645;DHT22;12780;45.502;9.146;2023-02-01T00:55:36;6.60;99.90
24645;DHT22;12780;45.502;9.146;2023-02-01T00:58:01;6.50;99.90
24645;DHT22;12780;45.502;9.146;2023-02-01T01:00:27;6.60;99.90
24645;DHT22;12780;45.502;9.146;2023-02-01T01:02:52;6.50;99.90
24645;DHT22;12780;45.502;9.146;2023-02-01T01:05:18;6.50;99.90
24645;DHT22;12780;45.502;9.146;2023-02-01T01:07:44;6.50;99.90
24645;DHT22;12780;45.502;9.146;2023-02-01T01:10:10;6.50;99.90
24645;DHT22;12780;45.502;9.146;2023-02-01T01:12:35;6.40;99.90
24645;DHT22;12780;45.502;9.146;2023-02-01T01:15:01;6.40;99.90
24645;DHT22;12780;45.502;9.146;2023-02-01T01:17:26;6.40;99.90
24645;DHT22;12780;45.502;9.146;2023-02-01T01:19:52;6.40;99.90
24645;DHT22;12780;45.502;9.146;2023-02-01T01:22:18;6.40;99.90
24645;DHT22;12780;45.502;9.146;2023-02-01T01:24:43;6.30;99.90
24645;DHT22;12780;45.502;9.146;2023-02-01T01:27:09;6.20;99.90
24645;DHT22;12780;45.502;9.146;2023-02-01T01:29:34;6.30;99.90
24645;DHT22;12780;45.502;9.146;2023-02-01T01:32:00;6.40;99.90
24645;DHT22;12780;45.502;9.146;2023-02-01T01:34:25;6.40;99.90
24645;DHT22;12780;45.502;9.146;2023-02-01T01:36:51;6.40;99.90
24645;DHT22;12780;45.502;9.146;2023-02-01T01:39:17;6.50;99.90
24645;DHT22;12780;45.502;9.146;2023-02-01T01:41:42;6.50;99.90
24645;DHT22;12780;45.502;9.146;2023-02-01T01:47:14;6.60;99.90
24645;DHT22;12780;45.502;9.146;2023-02-01T01:49:40;6.60;99.90
24645;DHT22;12780;45.502;9.146;2023-02-01T01:52:06;6.60;99.90
24645;DHT22;12780;45.502;9.146;2023-02-01T01:54:33;6.60;99.90
24645;DHT22;12780;45.502;9.146;2023-02-01T01:57:14;6.60;99.90
24645;DHT22;12780;45.502;9.146;2023-02-01T01:59:45;6.60;99.90
24645;DHT22;12780;45.502;9.146;2023-02-01T02:02:12;6.60;99.90
24645;DHT22;12780;45.502;9.146;2023-02-01T02:04:37;6.60;99.90
24645;DHT22;12780;45.502;9.146;2023-02-01T02:07:17;6.50;99.90
24645;DHT22;12780;45.502;9.146;2023-02-01T02:09:44;6.50;99.90
24645;DHT22;12780;45.502;9.146;2023-02-01T02:12:10;6.60;99.90
24645;DHT22;12780;45.502;9.146;2023-02-01T02:14:36;6.50;99.90
24645;DHT22;12780;45.502;9.146;2023-02-01T02:20:25;6.50;99.90
24645;DHT22;12780;45.502;9.146;2023-02-01T02:28:50;6.40;99.90
24645;DHT22;12780;45.502;9.146;2023-02-01T02:31:46;6.40;99.90
24645;DHT22;12780;45.502;9.146;2023-02-01T02:36:54;6.50;99.90
24645;DHT22;12780;45.502;9.146;2023-02-01T02:45:08;6.30;99.90
24645;DHT22;12780;45.502;9.146;2023-02-01T02:51:00;6.20;99.90
24645;DHT22;12780;45.502;9.146;2023-02-01T02:56:41;6.20;99.90
24645;DHT22;12780;45.502;9.146;2023-02-01T02:59:28;6.20;99.90
24645;DHT22;12780;45.502;9.146;2023-02-01T03:02:13;6.20;99.90
24645;DHT22;12780;45.502;9.146;2023-02-01T03:04:58;6.20;99.90
24645;DHT22;12780;45.502;9.146;2023-02-01T03:13:08;6.10;99.90
24645;DHT22;12780;45.502;9.146;2023-02-01T03:15:47;6.10;99.90
24645;DHT22;12780;45.502;9.146;2023-02-01T03:18:27;6.20;99.90
24645;DHT22;12780;45.502;9.146;2023-02-01T03:20:55;6.10;99.90
24645;DHT22;12780;45.502;9.146;2023-02-01T03:23:24;6.10;99.90
24645;DHT22;12780;45.502;9.146;2023-02-01T03:25:53;6.10;99.90
24645;DHT22;12780;45.502;9.146;2023-02-01T03:28:23;6.10;99.90
24645;DHT22;12780;45.502;9.146;2023-02-01T03:30:50;6.10;99.90
24645;DHT22;12780;45.502;9.146;2023-02-01T03:33:19;6.10;99.90
24645;DHT22;12780;45.502;9.146;2023-02-01T03:35:59;6.00;99.90
24645;DHT22;12780;45.502;9.146;2023-02-01T03:38:38;6.10;99.90
24645;DHT22;12780;45.502;9.146;2023-02-01T03:41:21;6.00;99.90
24645;DHT22;12780;45.502;9.146;2023-02-01T03:44:01;6.10;99.90
24645;DHT22;12780;45.502;9.146;2023-02-01T03:49:30;6.20;99.90
24645;DHT22;12780;45.502;9.146;2023-02-01T03:51:59;6.20;99.90
24645;DHT22;12780;45.502;9.146;2023-02-01T03:54:27;6.30;99.90
24645;DHT22;12780;45.502;9.146;2023-02-01T03:56:55;6.20;99.90
24645;DHT22;12780;45.502;9.146;2023-02-01T03:59:22;6.30;99.90
24645;DHT22;12780;45.502;9.146;2023-02-01T04:01:49;6.30;99.90
24645;DHT22;12780;45.502;9.146;2023-02-01T04:04:14;6.30;99.90
24645;DHT22;12780;45.502;9.146;2023-02-01T04:06:46;6.30;99.90
24645;DHT22;12780;45.502;9.146;2023-02-01T04:09:12;6.30;99.90
24645;DHT22;12780;45.502;9.146;2023-02-01T04:11:37;6.20;99.90
24645;DHT22;12780;45.502;9.146;2023-02-01T04:14:03;6.20;99.90
24645;DHT22;12780;45.502;9.146;2023-02-01T04:16:30;6.20;99.90
24645;DHT22;12780;45.502;9.146;2023-02-01T04:18:57;6.20;99.90
24645;DHT22;12780;45.502;9.146;2023-02-01T04:21:27;6.20;99.90
24645;DHT22;12780;45.502;9.146;2023-02-01T04:23:53;6.30;99.90
24645;DHT22;12780;45.502;9.146;2023-02-01T04:26:19;6.20;99.90
24645;DHT22;12780;45.502;9.146;2023-02-01T04:28:46;6.20;99.90
24645;DHT22;12780;45.502;9.146;2023-02-01T04:31:15;6.20;99.90
24645;DHT22;12780;45.502;9.146;2023-02-01T04:33:40;6.20;99.90
24645;DHT22;12780;45.502;9.146;2023-02-01T04:36:06;6.10;99.90
24645;DHT22;12780;45.502;9.146;2023-02-01T04:38:32;6.10;99.90
24645;DHT22;12780;45.502;9.146;2023-02-01T04:40:58;6.10;99.90
24645;DHT22;12780;45.502;9.146;2023-02-01T04:43:24;6.10;99.90
24645;DHT22;12780;45.502;9.146;2023-02-01T04:45:50;6.00;99.90
24645;DHT22;12780;45.502;9.146;2023-02-01T04:48:17;6.00;99.90
24645;DHT22;12780;45.502;9.146;2023-02-01T04:50:45;6.00;99.90
24645;DHT22;12780;45.502;9.146;2023-02-01T04:53:17;6.00;99.90
24645;DHT22;12780;45.502;9.146;2023-02-01T04:55:43;6.00;99.90
24645;DHT22;12780;45.502;9.146;2023-02-01T04:58:10;6.00;99.90
24645;DHT22;12780;45.502;9.146;2023-02-01T05:00:37;6.00;99.90
24645;DHT22;12780;45.502;9.146;2023-02-01T05:03:03;5.90;99.90
24645;DHT22;12780;45.502;9.146;2023-02-01T05:05:29;5.90;99.90
24645;DHT22;12780;45.502;9.146;2023-02-01T05:07:55;5.90;99.90
24645;DHT22;12780;45.502;9.146;2023-02-01T05:10:21;5.90;99.90
24645;DHT22;12780;45.502;9.146;2023-02-01T05:12:47;5.90;99.90
24645;DHT22;12780;45.502;9.146;2023-02-01T05:15:31;5.90;99.90
24645;DHT22;12780;45.502;9.146;2023-02-01T05:17:57;5.90;99.90
24645;DHT22;12780;45.502;9.146;2023-02-01T05:20:23;5.90;99.90
24645;DHT22;12780;45.502;9.146;2023-02-01T05:22:49;5.90;99.90
24645;DHT22;12780;45.502;9.146;2023-02-01T05:25:15;5.90;99.90
24645;DHT22;12780;45.502;9.146;2023-02-01T05:27:40;5.80;99.90
24645;DHT22;12780;45.502;9.146;2023-02-01T05:30:07;5.80;99.90
24645;DHT22;12780;45.502;9.146;2023-02-01T05:32:33;5.80;99.90
24645;DHT22;12780;45.502;9.146;2023-02-01T05:34:59;5.80;99.90
24645;DHT22;12780;45.502;9.146;2023-02-01T05:37:25;5.90;99.90
24645;DHT22;12780;45.502;9.146;2023-02-01T05:39:51;5.80;99.90
24645;DHT22;12780;45.502;9.146;2023-02-01T05:42:16;5.80;99.90
24645;DHT22;12780;45.502;9.146;2023-02-01T05:44:42;5.80;99.90
24645;DHT22;12780;45.502;9.146;2023-02-01T05:47:08;5.70;99.90
24645;DHT22;12780;45.502;9.146;2023-02-01T05:49:33;5.70;99.90
24645;DHT22;12780;45.502;9.146;2023-02-01T05:51:59;5.70;99.90
24645;DHT22;12780;45.502;9.146;2023-02-01T05:54:25;5.70;99.90
24645;DHT22;12780;45.502;9.146;2023-02-01T05:56:50;5.70;99.90
24645;DHT22;12780;45.502;9.146;2023-02-01T05:59:16;5.70;99.90
24645;DHT22;12780;45.502;9.146;2023-02-01T06:01:41;5.80;99.90
24645;DHT22;12780;45.502;9.146;2023-02-01T06:04:08;5.70;99.90
24645;DHT22;12780;45.502;9.146;2023-02-01T06:06:34;5.80;99.90
24645;DHT22;12780;45.502;9.146;2023-02-01T06:09:00;5.80;99.90
24645;DHT22;12780;45.502;9.146;2023-02-01T06:11:25;5.80;99.90
24645;DHT22;12780;45.502;9.146;2023-02-01T06:13:51;5.70;99.90
24645;DHT22;12780;45.502;9.146;2023-02-01T06:16:17;5.80;99.90
24645;DHT22;12780;45.502;9.146;2023-02-01T06:18:42;5.70;99.90
24645;DHT22;12780;45.502;9.146;2023-02-01T06:21:08;5.70;99.90
24645;DHT22;12780;45.502;9.146;2023-02-01T06:23:34;5.70;99.90
24645;DHT22;12780;45.502;9.146;2023-02-01T06:26:06;5.70;99.90
24645;DHT22;12780;45.502;9.146;2023-02-01T06:28:33;5.60;99.90
24645;DHT22;12780;45.502;9.146;2023-02-01T06:31:06;5.60;99.90
24645;DHT22;12780;45.502;9.146;2023-02-01T06:33:33;5.60;99.90
24645;DHT22;12780;45.502;9.146;2023-02-01T06:36:00;5.70;99.90
24645;DHT22;12780;45.502;9.146;2023-02-01T06:38:27;5.60;99.90
24645;DHT22;12780;45.502;9.146;2023-02-01T06:40:54;5.50;99.90
24645;DHT22;12780;45.502;9.146;2023-02-01T06:43:21;5.50;99.90
24645;DHT22;12780;45.502;9.146;2023-02-01T06:45:48;5.50;99.90
24645;DHT22;12780;45.502;9.146;2023-02-01T06:48:14;5.40;99.90
24645;DHT22;12780;45.502;9.146;2023-02-01T06:50:40;5.40;99.90
24645;DHT22;12780;45.502;9.146;2023-02-01T06:53:05;5.40;99.90
24645;DHT22;12780;45.502;9.146;2023-02-01T06:55:31;5.40;99.90
24645;DHT22;12780;45.502;9.146;2023-02-01T06:57:57;5.40;99.90
24645;DHT22;12780;45.502;9.146;2023-02-01T07:00:26;5.40;99.90
24645;DHT22;12780;45.502;9.146;2023-02-01T07:02:52;5.40;99.90
24645;DHT22;12780;45.502;9.146;2023-02-01T07:05:18;5.40;99.90
24645;DHT22;12780;45.502;9.146;2023-02-01T07:07:44;5.40;99.90
24645;DHT22;12780;45.502;9.146;2023-02-01T07:10:10;5.50;99.90
24645;DHT22;12780;45.502;9.146;2023-02-01T07:12:37;5.40;99.90
24645;DHT22;12780;45.502;9.146;2023-02-01T07:15:04;5.50;99.90
24645;DHT22;12780;45.502;9.146;2023-02-01T07:17:30;5.50;99.90
24645;DHT22;12780;45.502;9.146;2023-02-01T07:19:56;5.40;99.90
24645;DHT22;12780;45.502;9.146;2023-02-01T07:22:24;5.40;99.90
24645;DHT22;12780;45.502;9.146;2023-02-01T07:24:49;5.40;99.90
24645;DHT22;12780;45.502;9.146;2023-02-01T07:27:16;5.40;99.90
24645;DHT22;12780;45.502;9.146;2023-02-01T07:29:42;5.50;99.90
24645;DHT22;12780;45.502;9.146;2023-02-01T07:32:09;5.50;99.90
24645;DHT22;12780;45.502;9.146;2023-02-01T07:34:38;5.60;99.90
24645;DHT22;12780;45.502;9.146;2023-02-01T07:37:07;5.60;99.90
24645;DHT22;12780;45.502;9.146;2023-02-01T07:39:36;5.70;99.90
24645;DHT22;12780;45.502;9.146;2023-02-01T07:42:03;5.70;99.90
24645;DHT22;12780;45.502;9.146;2023-02-01T07:44:32;5.80;99.90
24645;DHT22;12780;45.502;9.146;2023-02-01T07:46:59;5.90;99.90
24645;DHT22;12780;45.502;9.146;2023-02-01T07:49:25;5.90;99.90
24645;DHT22;12780;45.502;9.146;2023-02-01T07:51:54;6.00;99.90
24645;DHT22;12780;45.502;9.146;2023-02-01T07:54:20;6.00;99.90
24645;DHT22;12780;45.502;9.146;2023-02-01T07:56:46;6.10;99.90
24645;DHT22;12780;45.502;9.146;2023-02-01T07:59:12;6.20;99.90
24645;DHT22;12780;45.502;9.146;2023-02-01T08:01:38;6.20;99.90
24645;DHT22;12780;45.502;9.146;2023-02-01T08:04:04;6.30;99.90
24645;DHT22;12780;45.502;9.146;2023-02-01T08:06:32;6.40;99.90
24645;DHT22;12780;45.502;9.146;2023-02-01T08:09:04;6.40;99.90
24645;DHT22;12780;45.502;9.146;2023-02-01T08:11:30;6.50;99.90
24645;DHT22;12780;45.502;9.146;2023-02-01T08:13:58;6.60;99.90
24645;DHT22;12780;45.502;9.146;2023-02-01T08:16:24;6.70;99.90
24645;DHT22;12780;45.502;9.146;2023-02-01T08:18:53;6.80;99.90
24645;DHT22;12780;45.502;9.146;2023-02-01T08:21:22;6.80;99.90
24645;DHT22;12780;45.502;9.146;2023-02-01T08:23:49;6.90;99.90
24645;DHT22;12780;45.502;9.146;2023-02-01T08:26:17;7.00;99.90
24645;DHT22;12780;45.502;9.146;2023-02-01T08:28:46;7.10;99.90
24645;DHT22;12780;45.502;9.146;2023-02-01T08:31:15;7.10;99.90
24645;DHT22;12780;45.502;9.146;2023-02-01T08:33:42;7.20;99.90
24645;DHT22;12780;45.502;9.146;2023-02-01T08:36:09;7.30;99.90
24645;DHT22;12780;45.502;9.146;2023-02-01T08:38:37;7.40;99.90
24645;DHT22;12780;45.502;9.146;2023-02-01T08:41:07;7.40;99.90
24645;DHT22;12780;45.502;9.146;2023-02-01T08:43:34;7.50;99.90
24645;DHT22;12780;45.502;9.146;2023-02-01T08:46:00;7.50;99.90
24645;DHT22;12780;45.502;9.146;2023-02-01T08:48:26;7.50;99.90
24645;DHT22;12780;45.502;9.146;2023-02-01T08:50:52;7.50;99.90
24645;DHT22;12780;45.502;9.146;2023-02-01T08:53:18;7.70;99.90
24645;DHT22;12780;45.502;9.146;2023-02-01T08:55:48;7.80;99.90
24645;DHT22;12780;45.502;9.146;2023-02-01T08:58:18;7.90;99.90
24645;DHT22;12780;45.502;9.146;2023-02-01T09:00:45;8.10;99.90
24645;DHT22;12780;45.502;9.146;2023-02-01T09:03:14;8.20;99.90
24645;DHT22;12780;45.502;9.146;2023-02-01T09:05:41;8.30;99.90
24645;DHT22;12780;45.502;9.146;2023-02-01T09:08:11;8.40;99.90
24645;DHT22;12780;45.502;9.146;2023-02-01T09:10:50;8.50;99.90
24645;DHT22;12780;45.502;9.146;2023-02-01T09:13:18;8.60;99.90
24645;DHT22;12780;45.502;9.146;2023-02-01T09:15:50;8.60;99.90
24645;DHT22;12780;45.502;9.146;2023-02-01T09:18:18;8.70;99.90
24645;DHT22;12780;45.502;9.146;2023-02-01T09:20:44;8.70;99.90
24645;DHT22;12780;45.502;9.146;2023-02-01T09:23:11;8.80;99.90
24645;DHT22;12780;45.502;9.146;2023-02-01T09:25:37;8.90;99.90
24645;DHT22;12780;45.502;9.146;2023-02-01T09:28:04;9.00;99.90
24645;DHT22;12780;45.502;9.146;2023-02-01T09:30:37;9.10;99.90
24645;DHT22;12780;45.502;9.146;2023-02-01T09:33:04;9.20;99.90
24645;DHT22;12780;45.502;9.146;2023-02-01T09:35:30;9.30;99.90
24645;DHT22;12780;45.502;9.146;2023-02-01T09:37:57;9.40;99.90
24645;DHT22;12780;45.502;9.146;2023-02-01T09:40:24;9.50;99.90
24645;DHT22;12780;45.502;9.146;2023-02-01T09:45:49;9.60;99.90
24645;DHT22;12780;45.502;9.146;2023-02-01T09:48:20;9.70;99.90
24645;DHT22;12780;45.502;9.146;2023-02-01T09:50:57;9.60;99.90
24645;DHT22;12780;45.502;9.146;2023-02-01T09:53:33;9.80;99.90
24645;DHT22;12780;45.502;9.146;2023-02-01T09:56:12;9.90;99.90
24645;DHT22;12780;45.502;9.146;2023-02-01T09:58:46;9.90;99.90
24645;DHT22;12780;45.502;9.146;2023-02-01T10:01:21;10.20;99.90
24645;DHT22;12780;45.502;9.146;2023-02-01T10:04:01;10.10;99.90
24645;DHT22;12780;45.502;9.146;2023-02-01T10:06:54;10.10;99.90
24645;DHT22;12780;45.502;9.146;2023-02-01T10:26:03;10.60;99.90
24645;DHT22;12780;45.502;9.146;2023-02-01T10:28:33;10.70;99.90
24645;DHT22;12780;45.502;9.146;2023-02-01T10:31:05;10.70;99.90
24645;DHT22;12780;45.502;9.146;2023-02-01T10:33:39;10.80;99.90
24645;DHT22;12780;45.502;9.146;2023-02-01T10:38:46;11.00;99.90
24645;DHT22;12780;45.502;9.146;2023-02-01T10:41:23;11.00;99.90
24645;DHT22;12780;45.502;9.146;2023-02-01T10:43:55;11.10;99.90
24645;DHT22;12780;45.502;9.146;2023-02-01T10:46:32;11.20;99.90
24645;DHT22;12780;45.502;9.146;2023-02-01T10:49:03;11.30;99.90
24645;DHT22;12780;45.502;9.146;2023-02-01T10:54:18;11.40;99.90
24645;DHT22;12780;45.502;9.146;2023-02-01T10:56:47;11.50;99.90
24645;DHT22;12780;45.502;9.146;2023-02-01T10:59:24;11.50;99.90
24645;DHT22;12780;45.502;9.146;2023-02-01T11:02:01;11.60;99.90
24645;DHT22;12780;45.502;9.146;2023-02-01T11:04:33;11.80;99.90
24645;DHT22;12780;45.502;9.146;2023-02-01T11:07:25;11.80;99.90
24645;DHT22;12780;45.502;9.146;2023-02-01T11:09:53;11.80;99.90
24645;DHT22;12780;45.502;9.146;2023-02-01T11:12:37;12.00;99.90
24645;DHT22;12780;45.502;9.146;2023-02-01T11:15:21;12.10;99.90
24645;DHT22;12780;45.502;9.146;2023-02-01T11:17:49;12.10;99.90
24645;DHT22;12780;45.502;9.146;2023-02-01T11:20:41;12.10;99.90
24645;DHT22;12780;45.502;9.146;2023-02-01T11:23:19;12.20;99.90
24645;DHT22;12780;45.502;9.146;2023-02-01T11:25:56;12.20;99.90
24645;DHT22;12780;45.502;9.146;2023-02-01T11:28:26;12.40;99.90
24645;DHT22;12780;45.502;9.146;2023-02-01T11:30:56;12.40;99.90
24645;DHT22;12780;45.502;9.146;2023-02-01T11:33:26;12.50;99.90
24645;DHT22;12780;45.502;9.146;2023-02-01T11:35:56;12.60;99.90
24645;DHT22;12780;45.502;9.146;2023-02-01T11:38:29;12.70;99.90
24645;DHT22;12780;45.502;9.146;2023-02-01T11:40:57;12.70;99.90
24645;DHT22;12780;45.502;9.146;2023-02-01T11:43:36;12.80;99.90
24645;DHT22;12780;45.502;9.146;2023-02-01T11:46:03;12.90;99.90
24645;DHT22;12780;45.502;9.146;2023-02-01T11:48:31;12.80;99.90
24645;DHT22;12780;45.502;9.146;2023-02-01T11:56:48;13.00;99.90
24645;DHT22;12780;45.502;9.146;2023-02-01T12:10:40;13.20;99.90
24645;DHT22;12780;45.502;9.146;2023-02-01T12:13:23;13.30;99.90
24645;DHT22;12780;45.502;9.146;2023-02-01T12:16:06;13.30;99.90
24645;DHT22;12780;45.502;9.146;2023-02-01T12:21:41;13.40;99.90
24645;DHT22;12780;45.502;9.146;2023-02-01T12:27:03;13.30;99.90
24645;DHT22;12780;45.502;9.146;2023-02-01T12:35:04;13.30;99.90
24645;DHT22;12780;45.502;9.146;2023-02-01T12:41:10;13.30;99.90
24645;DHT22;12780;45.502;9.146;2023-02-01T12:43:52;13.40;99.90
24645;DHT22;12780;45.502;9.146;2023-02-01T12:46:33;13.40;99.90
24645;DHT22;12780;45.502;9.146;2023-02-01T12:49:12;13.50;99.90
24645;DHT22;12780;45.502;9.146;2023-02-01T12:51:42;13.50;99.90
24645;DHT22;12780;45.502;9.146;2023-02-01T12:54:40;13.50;99.90
24645;DHT22;12780;45.502;9.146;2023-02-01T12:57:35;13.40;99.90
24645;DHT22;12780;45.502;9.146;2023-02-01T13:00:16;13.50;99.90
24645;DHT22;12780;45.502;9.146;2023-02-01T13:03:00;13.50;99.90
24645;DHT22;12780;45.502;9.146;2023-02-01T13:06:02;13.50;99.90
24645;DHT22;12780;45.502;9.146;2023-02-01T13:08:44;13.50;99.90
24645;DHT22;12780;45.502;9.146;2023-02-01T13:11:33;13.50;99.90
24645;DHT22;12780;45.502;9.146;2023-02-01T13:16:53;13.40;99.90
24645;DHT22;12780;45.502;9.146;2023-02-01T13:21:57;13.50;99.90
24645;DHT22;12780;45.502;9.146;2023-02-01T13:27:36;13.50;99.90
24645;DHT22;12780;45.502;9.146;2023-02-01T13:30:19;13.50;99.90
24645;DHT22;12780;45.502;9.146;2023-02-01T13:33:05;13.50;99.90
24645;DHT22;12780;45.502;9.146;2023-02-01T13:38:06;13.60;99.90
24645;DHT22;12780;45.502;9.146;2023-02-01T13:43:11;13.60;99.90
24645;DHT22;12780;45.502;9.146;2023-02-01T13:45:45;13.60;99.90
24645;DHT22;12780;45.502;9.146;2023-02-01T13:48:19;13.70;99.90
24645;DHT22;12780;45.502;9.146;2023-02-01T13:50:51;13.70;99.90
24645;DHT22;12780;45.502;9.146;2023-02-01T13:53:28;13.60;99.90
24645;DHT22;12780;45.502;9.146;2023-02-01T13:55:59;13.70;99.90
24645;DHT22;12780;45.502;9.146;2023-02-01T13:58:37;13.70;99.90
24645;DHT22;12780;45.502;9.146;2023-02-01T14:17:30;13.70;99.90
24645;DHT22;12780;45.502;9.146;2023-02-01T14:19:32;13.80;99.90
24645;DHT22;12780;45.502;9.146;2023-02-01T14:24:41;13.80;99.90
24645;DHT22;12780;45.502;9.146;2023-02-01T14:29:41;13.80;99.90
24645;DHT22;12780;45.502;9.146;2023-02-01T14:32:17;13.80;99.90
24645;DHT22;12780;45.502;9.146;2023-02-01T14:37:28;13.80;99.90
24645;DHT22;12780;45.502;9.146;2023-02-01T14:40:03;13.80;99.90
24645;DHT22;12780;45.502;9.146;2023-02-01T14:42:47;13.80;99.90
24645;DHT22;12780;45.502;9.146;2023-02-01T14:58:29;13.80;99.90
24645;DHT22;12780;45.502;9.146;2023-02-01T15:00:59;13.70;99.90
24645;DHT22;12780;45.502;9.146;2023-02-01T15:03:47;13.80;99.90
24645;DHT22;12780;45.502;9.146;2023-02-01T15:09:25;13.80;99.90
24645;DHT22;12780;45.502;9.146;2023-02-01T15:14:45;13.80;99.90
24645;DHT22;12780;45.502;9.146;2023-02-01T15:17:29;13.70;99.90
24645;DHT22;12780;45.502;9.146;2023-02-01T15:20:11;13.70;99.90
24645;DHT22;12780;45.502;9.146;2023-02-01T15:22:37;13.70;99.90
24645;DHT22;12780;45.502;9.146;2023-02-01T15:25:03;13.60;99.90
24645;DHT22;12780;45.502;9.146;2023-02-01T15:27:31;13.70;99.90
24645;DHT22;12780;45.502;9.146;2023-02-01T15:30:08;13.60;99.90
24645;DHT22;12780;45.502;9.146;2023-02-01T15:32:41;13.60;99.90
24645;DHT22;12780;45.502;9.146;2023-02-01T15:43:28;13.50;99.90
24645;DHT22;12780;45.502;9.146;2023-02-01T15:45:58;13.50;99.90
24645;DHT22;12780;45.502;9.146;2023-02-01T15:48:26;13.40;99.90
24645;DHT22;12780;45.502;9.146;2023-02-01T15:50:53;13.40;99.90
24645;DHT22;12780;45.502;9.146;2023-02-01T15:53:24;13.40;99.90
24645;DHT22;12780;45.502;9.146;2023-02-01T15:55:55;13.30;99.90
24645;DHT22;12780;45.502;9.146;2023-02-01T15:58:23;13.40;99.90
24645;DHT22;12780;45.502;9.146;2023-02-01T16:00:57;13.20;99.90
24645;DHT22;12780;45.502;9.146;2023-02-01T16:03:34;13.20;99.90
24645;DHT22;12780;45.502;9.146;2023-02-01T16:06:02;13.10;99.90
24645;DHT22;12780;45.502;9.146;2023-02-01T16:08:30;13.20;99.90
24645;DHT22;12780;45.502;9.146;2023-02-01T16:13:35;13.00;99.90
24645;DHT22;12780;45.502;9.146;2023-02-01T16:16:01;12.90;99.90
24645;DHT22;12780;45.502;9.146;2023-02-01T16:18:27;12.90;99.90
24645;DHT22;12780;45.502;9.146;2023-02-01T16:20:53;12.90;99.90
24645;DHT22;12780;45.502;9.146;2023-02-01T16:23:18;12.80;99.90
24645;DHT22;12780;45.502;9.146;2023-02-01T16:25:46;12.80;99.90
24645;DHT22;12780;45.502;9.146;2023-02-01T16:28:12;12.70;99.90
24645;DHT22;12780;45.502;9.146;2023-02-01T16:30:37;12.70;99.90
24645;DHT22;12780;45.502;9.146;2023-02-01T16:33:03;12.70;99.90
24645;DHT22;12780;45.502;9.146;2023-02-01T16:35:33;12.70;99.90
24645;DHT22;12780;45.502;9.146;2023-02-01T16:38:21;12.60;99.90
24645;DHT22;12780;45.502;9.146;2023-02-01T16:40:49;12.60;99.90
24645;DHT22;12780;45.502;9.146;2023-02-01T16:43:17;12.50;99.90
24645;DHT22;12780;45.502;9.146;2023-02-01T16:45:44;12.50;99.90
24645;DHT22;12780;45.502;9.146;2023-02-01T16:48:34;12.40;99.90
24645;DHT22;12780;45.502;9.146;2023-02-01T16:51:18;12.40;99.90
24645;DHT22;12780;45.502;9.146;2023-02-01T16:53:45;12.30;99.90
24645;DHT22;12780;45.502;9.146;2023-02-01T16:56:19;12.40;99.90
24645;DHT22;12780;45.502;9.146;2023-02-01T16:58:45;12.20;99.90
24645;DHT22;12780;45.502;9.146;2023-02-01T17:01:13;12.30;99.90
24645;DHT22;12780;45.502;9.146;2023-02-01T17:03:40;12.30;99.90
24645;DHT22;12780;45.502;9.146;2023-02-01T17:06:08;12.30;99.90
24645;DHT22;12780;45.502;9.146;2023-02-01T17:08:37;12.20;99.90
24645;DHT22;12780;45.502;9.146;2023-02-01T17:11:05;12.20;99.90
24645;DHT22;12780;45.502;9.146;2023-02-01T17:13:31;12.20;99.90
24645;DHT22;12780;45.502;9.146;2023-02-01T17:16:27;12.10;99.90
24645;DHT22;12780;45.502;9.146;2023-02-01T17:19:13;12.10;99.90
24645;DHT22;12780;45.502;9.146;2023-02-01T17:21:47;12.00;99.90
24645;DHT22;12780;45.502;9.146;2023-02-01T17:24:16;12.00;99.90
24645;DHT22;12780;45.502;9.146;2023-02-01T17:26:43;12.00;99.90
24645;DHT22;12780;45.502;9.146;2023-02-01T17:29:09;11.90;99.90
24645;DHT22;12780;45.502;9.146;2023-02-01T17:31:44;11.80;99.90
24645;DHT22;12780;45.502;9.146;2023-02-01T17:34:11;11.80;99.90
24645;DHT22;12780;45.502;9.146;2023-02-01T17:36:37;11.80;99.90
24645;DHT22;12780;45.502;9.146;2023-02-01T17:39:04;11.70;99.90
24645;DHT22;12780;45.502;9.146;2023-02-01T17:41:30;11.70;99.90
24645;DHT22;12780;45.502;9.146;2023-02-01T17:43:55;11.70;99.90
24645;DHT22;12780;45.502;9.146;2023-02-01T17:46:21;11.60;99.90
24645;DHT22;12780;45.502;9.146;2023-02-01T17:48:52;11.60;99.90
24645;DHT22;12780;45.502;9.146;2023-02-01T17:51:20;11.60;99.90
24645;DHT22;12780;45.502;9.146;2023-02-01T17:53:46;11.60;99.90
24645;DHT22;12780;45.502;9.146;2023-02-01T17:56:17;11.50;99.90
24645;DHT22;12780;45.502;9.146;2023-02-01T17:58:43;11.50;99.90
24645;DHT22;12780;45.502;9.146;2023-02-01T18:01:18;11.50;99.90
24645;DHT22;12780;45.502;9.146;2023-02-01T18:03:44;11.50;99.90
24645;DHT22;12780;45.502;9.146;2023-02-01T18:06:18;11.50;99.90
24645;DHT22;12780;45.502;9.146;2023-02-01T18:08:44;11.50;99.90
24645;DHT22;12780;45.502;9.146;2023-02-01T18:11:13;11.50;99.90
24645;DHT22;12780;45.502;9.146;2023-02-01T18:13:39;11.50;99.90
24645;DHT22;12780;45.502;9.146;2023-02-01T18:16:05;11.40;99.90
24645;DHT22;12780;45.502;9.146;2023-02-01T18:18:31;11.40;99.90
24645;DHT22;12780;45.502;9.146;2023-02-01T18:20:58;11.40;99.90
24645;DHT22;12780;45.502;9.146;2023-02-01T18:23:24;11.30;99.90
24645;DHT22;12780;45.502;9.146;2023-02-01T18:25:51;11.30;99.90
24645;DHT22;12780;45.502;9.146;2023-02-01T18:28:18;11.50;99.90
24645;DHT22;12780;45.502;9.146;2023-02-01T18:30:46;11.20;99.90
24645;DHT22;12780;45.502;9.146;2023-02-01T18:33:15;11.30;99.90
24645;DHT22;12780;45.502;9.146;2023-02-01T18:35:41;11.20;99.90
24645;DHT22;12780;45.502;9.146;2023-02-01T18:38:07;11.20;99.90